createdAt,value
2022-10-09T00:01:10.240Z,3.78
2022-10-09T00:03:38.470Z,3.25
2022-10-09T00:06:06.817Z,4.97
2022-10-09T00:08:39.565Z,2.90
2022-10-09T00:11:08.180Z,5.10
2022-10-09T00:13:35.732Z,2.88
2022-10-09T00:16:05.006Z,4.95
2022-10-09T00:18:31.878Z,3.33
2022-10-09T00:20:59.013Z,1.90
2022-10-09T00:23:25.747Z,2.23
2022-10-09T00:25:58.220Z,1.90
2022-10-09T00:28:27.083Z,2.90
2022-10-09T00:30:54.290Z,2.85
2022-10-09T00:33:21.938Z,2.92
2022-10-09T00:35:49.446Z,1.77
2022-10-09T00:38:16.537Z,3.25
2022-10-09T00:40:43.496Z,3.17
2022-10-09T00:43:19.401Z,3.25
2022-10-09T00:45:53.765Z,1.70
2022-10-09T00:48:21.725Z,2.87
2022-10-09T00:50:58.023Z,3.35
2022-10-09T00:53:28.894Z,4.55
2022-10-09T00:55:56.260Z,2.03
2022-10-09T00:58:24.486Z,4.15
2022-10-09T01:00:52.047Z,2.87
2022-10-09T01:03:18.883Z,3.97
2022-10-09T01:05:45.586Z,2.60
2022-10-09T01:08:22.176Z,2.78
2022-10-09T01:10:48.877Z,2.63
2022-10-09T01:13:24.690Z,4.13
2022-10-09T01:15:59.427Z,5.55
2022-10-09T01:18:52.571Z,2.60
2022-10-09T01:21:28.562Z,2.80
2022-10-09T01:24:22.264Z,2.55
2022-10-09T01:27:01.208Z,2.93
2022-10-09T01:29:36.219Z,3.00
2022-10-09T01:32:05.770Z,3.30
2022-10-09T01:34:34.012Z,5.20
2022-10-09T01:37:01.277Z,3.17
2022-10-09T01:39:30.466Z,3.90
2022-10-09T01:41:57.953Z,3.13
2022-10-09T01:44:30.197Z,6.05
2022-10-09T01:46:57.240Z,3.05
2022-10-09T01:49:41.187Z,3.72
2022-10-09T01:52:32.735Z,3.63
2022-10-09T01:55:14.050Z,2.50
2022-10-09T01:57:46.664Z,2.55
2022-10-09T02:00:14.813Z,4.10
2022-10-09T02:02:43.207Z,4.82
2022-10-09T02:05:12.753Z,2.43
2022-10-09T02:07:39.821Z,3.78
2022-10-09T02:10:08.971Z,4.65
2022-10-09T02:12:41.562Z,3.65
2022-10-09T02:15:09.628Z,4.57
2022-10-09T02:17:42.468Z,4.23
2022-10-09T02:20:35.163Z,3.70
2022-10-09T02:23:06.827Z,2.15
2022-10-09T02:25:34.527Z,4.40
2022-10-09T02:28:01.862Z,3.03
2022-10-09T02:30:39.442Z,5.37
2022-10-09T02:33:06.298Z,5.80
2022-10-09T02:35:33.464Z,6.82
2022-10-09T02:38:00.187Z,2.90
2022-10-09T02:40:26.969Z,4.75
2022-10-09T02:42:53.807Z,2.70
2022-10-09T02:45:20.616Z,4.60
2022-10-09T02:47:47.377Z,3.28
2022-10-09T02:50:14.134Z,4.47
2022-10-09T02:52:40.882Z,4.90
2022-10-09T02:55:07.979Z,4.97
2022-10-09T02:57:34.799Z,5.68
2022-10-09T03:00:01.591Z,5.72
2022-10-09T03:02:28.381Z,5.97
2022-10-09T03:04:55.249Z,3.35
2022-10-09T03:07:22.012Z,4.87
2022-10-09T03:09:48.793Z,3.55
2022-10-09T03:12:21.294Z,3.90
2022-10-09T03:14:48.128Z,2.80
2022-10-09T03:17:14.891Z,3.00
2022-10-09T03:19:41.685Z,4.80
2022-10-09T03:22:08.496Z,4.63
2022-10-09T03:24:35.331Z,3.58
2022-10-09T03:27:02.155Z,4.20
2022-10-09T03:29:28.841Z,4.00
2022-10-09T03:31:55.722Z,3.60
2022-10-09T03:34:22.541Z,5.43
2022-10-09T03:36:49.482Z,5.60
2022-10-09T03:39:16.330Z,2.53
2022-10-09T03:41:43.131Z,4.75
2022-10-09T03:44:09.918Z,4.70
2022-10-09T03:46:36.794Z,6.07
2022-10-09T03:49:03.724Z,4.13
2022-10-09T03:51:30.499Z,4.82
2022-10-09T03:53:57.298Z,2.50
2022-10-09T03:56:24.130Z,3.93
2022-10-09T03:58:50.920Z,3.80
2022-10-09T04:01:17.725Z,4.18
2022-10-09T04:03:44.516Z,2.80
2022-10-09T04:06:11.561Z,3.25
2022-10-09T04:08:38.508Z,3.90
2022-10-09T04:11:05.493Z,2.28
2022-10-09T04:13:32.253Z,3.17
2022-10-09T04:15:59.146Z,2.22
2022-10-09T04:18:26.217Z,3.05
2022-10-09T04:20:55.865Z,2.63
2022-10-09T04:23:24.927Z,2.60
2022-10-09T04:25:59.624Z,5.18
2022-10-09T04:28:28.530Z,3.80
2022-10-09T04:30:57.601Z,2.85
2022-10-09T04:33:25.216Z,2.63
2022-10-09T04:35:54.240Z,5.07
2022-10-09T04:38:22.292Z,2.70
2022-10-09T04:41:02.998Z,3.70
2022-10-09T04:43:30.735Z,4.15
2022-10-09T04:45:57.675Z,6.00
2022-10-09T04:48:25.808Z,4.35
2022-10-09T04:50:52.696Z,3.90
2022-10-09T04:53:19.534Z,2.85
2022-10-09T04:55:46.377Z,4.80
2022-10-09T04:58:14.197Z,2.93
2022-10-09T05:00:43.423Z,4.53
2022-10-09T05:03:11.154Z,3.28
2022-10-09T05:05:38.036Z,4.20
2022-10-09T05:08:05.297Z,4.15
2022-10-09T05:10:32.996Z,2.70
2022-10-09T05:13:00.307Z,3.42
2022-10-09T05:15:27.813Z,2.95
2022-10-09T05:17:54.771Z,3.40
2022-10-09T05:20:21.717Z,2.70
2022-10-09T05:22:49.625Z,2.57
2022-10-09T05:25:16.635Z,4.07
2022-10-09T05:27:43.445Z,7.68
2022-10-09T05:30:10.879Z,4.60
2022-10-09T05:32:37.723Z,3.40
2022-10-09T05:35:04.771Z,2.93
2022-10-09T05:37:31.577Z,3.58
2022-10-09T05:39:58.276Z,4.10
2022-10-09T05:42:25.020Z,3.17
2022-10-09T05:44:51.810Z,2.70
2022-10-09T05:47:19.876Z,2.20
2022-10-09T05:49:46.905Z,2.65
2022-10-09T05:52:13.711Z,3.72
2022-10-09T05:54:42.068Z,3.83
2022-10-09T05:57:10.101Z,3.47
2022-10-09T05:59:36.847Z,9.73
2022-10-09T06:02:04.326Z,2.35
2022-10-09T06:04:31.092Z,3.58
2022-10-09T06:06:57.862Z,4.05
2022-10-09T06:09:26.268Z,3.13
2022-10-09T06:11:54.695Z,3.03
2022-10-09T06:14:22.347Z,2.83
2022-10-09T06:16:49.924Z,1.98
2022-10-09T06:19:18.496Z,3.78
2022-10-09T06:21:46.476Z,4.90
2022-10-09T06:24:28.603Z,2.13
2022-10-09T06:26:56.903Z,2.95
2022-10-09T06:29:23.797Z,3.88
2022-10-09T06:31:50.596Z,3.97
2022-10-09T06:34:17.360Z,3.40
2022-10-09T06:36:44.140Z,3.67
2022-10-09T06:39:11.333Z,3.35
2022-10-09T06:41:38.275Z,5.18
2022-10-09T06:44:07.713Z,3.28
2022-10-09T06:46:37.688Z,3.83
2022-10-09T06:49:05.872Z,3.07
2022-10-09T06:51:33.784Z,2.75
2022-10-09T06:54:02.932Z,3.67
2022-10-09T06:56:31.947Z,3.20
2022-10-09T06:59:03.940Z,3.53
2022-10-09T07:01:32.295Z,3.30
2022-10-09T07:04:07.142Z,4.80
2022-10-09T07:06:38.084Z,3.35
2022-10-09T07:09:08.014Z,4.47
2022-10-09T07:11:40.828Z,3.97
2022-10-09T07:14:09.580Z,2.93
2022-10-09T07:16:42.026Z,4.93
2022-10-09T07:19:11.480Z,8.32
2022-10-09T07:21:40.445Z,7.53
2022-10-09T07:24:08.138Z,7.90
2022-10-09T07:26:37.375Z,14.93
2022-10-09T07:29:05.897Z,12.55
2022-10-09T07:31:32.753Z,13.27
2022-10-09T07:33:59.693Z,13.23
2022-10-09T07:36:26.904Z,13.10
2022-10-09T07:38:56.253Z,9.13
2022-10-09T07:41:24.943Z,10.32
2022-10-09T07:43:51.942Z,7.35
2022-10-09T07:46:21.023Z,7.30
2022-10-09T07:48:48.484Z,8.05
2022-10-09T07:51:20.814Z,6.83
2022-10-09T07:53:48.221Z,6.75
2022-10-09T07:56:35.914Z,7.88
2022-10-09T07:59:05.531Z,13.40
2022-10-09T08:01:34.108Z,7.32
2022-10-09T08:04:01.846Z,7.33
2022-10-09T08:06:29.207Z,7.13
2022-10-09T08:08:57.741Z,9.23
2022-10-09T08:11:26.678Z,8.75
2022-10-09T08:13:54.069Z,7.30
2022-10-09T08:16:22.413Z,7.03
2022-10-09T08:18:49.697Z,8.60
2022-10-09T08:21:18.731Z,7.40
2022-10-09T08:23:46.328Z,7.85
2022-10-09T08:26:18.672Z,10.07
2022-10-09T08:28:54.521Z,6.43
2022-10-09T08:31:22.528Z,7.97
2022-10-09T08:33:53.758Z,12.98
2022-10-09T08:36:21.733Z,8.27
2022-10-09T08:38:48.837Z,7.45
2022-10-09T08:41:48.736Z,8.20
2022-10-09T08:44:24.256Z,7.15
2022-10-09T08:47:05.603Z,6.72
2022-10-09T08:50:09.444Z,7.60
2022-10-09T08:53:00.940Z,5.18
2022-10-09T08:55:29.203Z,10.07
2022-10-09T08:58:01.091Z,10.68
2022-10-09T09:00:35.930Z,9.43
2022-10-09T09:03:27.587Z,8.02
2022-10-09T09:06:27.156Z,8.70
2022-10-09T09:09:16.806Z,8.73
2022-10-09T09:12:08.912Z,7.88
2022-10-09T09:14:58.351Z,8.18
2022-10-09T09:17:46.456Z,9.38
2022-10-09T09:20:16.613Z,9.90
2022-10-09T09:22:50.432Z,8.13
2022-10-09T09:25:22.724Z,9.75
2022-10-09T09:27:50.115Z,8.00
2022-10-09T09:30:38.604Z,10.25
2022-10-09T09:33:37.321Z,9.70
2022-10-09T09:36:29.219Z,6.40
2022-10-09T09:39:45.510Z,7.68
2022-10-09T09:41:44.060Z,7.47
2022-10-09T09:44:13.614Z,8.38
2022-10-09T09:46:42.047Z,7.38
2022-10-09T09:49:19.255Z,7.10
2022-10-09T09:51:47.393Z,7.13
2022-10-09T09:54:22.945Z,9.98
2022-10-09T09:59:41.616Z,9.05
2022-10-09T10:02:22.799Z,5.93
2022-10-09T10:04:51.696Z,6.95
2022-10-09T10:07:33.809Z,6.00
2022-10-09T10:10:24.006Z,8.85
2022-10-09T10:12:52.318Z,8.30
2022-10-09T10:15:23.396Z,11.67
2022-10-09T10:17:57.643Z,8.77
2022-10-09T10:20:25.014Z,5.65
2022-10-09T10:22:54.054Z,7.15
2022-10-09T10:25:25.459Z,9.45
2022-10-09T10:27:58.291Z,5.17
2022-10-09T10:30:25.463Z,9.85
2022-10-09T10:32:58.937Z,7.40
2022-10-09T10:35:35.935Z,6.30
2022-10-09T10:38:13.243Z,5.93
2022-10-09T10:40:46.627Z,5.77
2022-10-09T10:43:39.592Z,7.10
2022-10-09T10:46:29.640Z,5.30
2022-10-09T10:48:59.133Z,6.88
2022-10-09T10:51:53.984Z,11.30
2022-10-09T10:54:23.884Z,8.63
2022-10-09T10:57:16.889Z,4.32
2022-10-09T11:00:04.152Z,4.82
2022-10-09T11:02:55.334Z,5.13
2022-10-09T11:05:39.060Z,5.78
2022-10-09T11:08:43.229Z,8.67
2022-10-09T11:11:14.830Z,7.07
2022-10-09T11:14:05.736Z,6.50
2022-10-09T11:16:59.136Z,4.80
2022-10-09T11:19:53.134Z,4.00
2022-10-09T11:22:37.183Z,6.27
2022-10-09T11:25:30.090Z,7.05
2022-10-09T11:28:18.906Z,7.43
2022-10-09T11:30:58.018Z,8.93
2022-10-09T11:33:38.866Z,4.90
2022-10-09T11:36:45.265Z,5.10
2022-10-09T11:39:19.981Z,7.30
2022-10-09T11:41:49.208Z,6.15
2022-10-09T11:44:44.563Z,5.72
2022-10-09T11:47:14.051Z,10.95
2022-10-09T11:50:31.350Z,4.60
2022-10-09T11:53:21.069Z,4.28
2022-10-09T11:55:48.665Z,6.90
2022-10-09T11:58:26.061Z,4.75
2022-10-09T12:00:55.494Z,6.68
2022-10-09T12:03:38.451Z,5.47
2022-10-09T12:06:07.550Z,4.30
2022-10-09T12:08:35.043Z,6.57
2022-10-09T12:11:15.077Z,4.07
2022-10-09T12:13:52.296Z,4.43
2022-10-09T12:16:42.905Z,4.00
2022-10-09T12:19:15.848Z,4.75
2022-10-09T12:22:14.917Z,4.90
2022-10-09T12:24:48.637Z,5.05
2022-10-09T12:27:25.580Z,5.30
2022-10-09T12:30:21.038Z,5.07
2022-10-09T12:32:57.222Z,5.22
2022-10-09T12:35:36.858Z,5.72
2022-10-09T12:38:24.516Z,2.28
2022-10-09T12:40:53.647Z,3.55
2022-10-09T12:43:22.877Z,5.30
2022-10-09T12:45:51.208Z,4.53
2022-10-09T12:48:22.526Z,7.38
2022-10-09T12:50:50.061Z,4.38
2022-10-09T12:53:23.010Z,4.97
2022-10-09T12:55:57.935Z,5.17
2022-10-09T12:58:26.639Z,5.60
2022-10-09T13:01:02.292Z,4.20
2022-10-09T13:03:38.362Z,6.90
2022-10-09T13:06:16.026Z,7.72
2022-10-09T13:08:44.453Z,4.17
2022-10-09T13:11:41.207Z,4.80
2022-10-09T13:14:28.353Z,2.47
2022-10-09T13:16:55.545Z,5.72
2022-10-09T13:19:31.818Z,4.70
2022-10-09T13:22:07.515Z,5.80
2022-10-09T13:24:36.135Z,6.75
2022-10-09T13:27:04.762Z,4.50
2022-10-09T13:29:32.147Z,6.20
2022-10-09T13:31:59.084Z,5.85
2022-10-09T13:34:29.180Z,3.60
2022-10-09T13:36:56.988Z,3.55
2022-10-09T13:39:23.927Z,4.00
2022-10-09T13:41:55.683Z,4.80
2022-10-09T13:44:22.575Z,4.53
2022-10-09T13:46:49.675Z,6.37
2022-10-09T13:49:16.638Z,3.50
2022-10-09T13:51:43.655Z,5.95
2022-10-09T13:54:10.470Z,3.53
2022-10-09T13:56:37.349Z,4.18
2022-10-09T13:59:04.668Z,6.57
2022-10-09T14:01:31.691Z,5.32
2022-10-09T14:03:58.594Z,5.22
2022-10-09T14:06:25.518Z,5.72
2022-10-09T14:08:52.985Z,5.68
2022-10-09T14:11:20.279Z,5.67
2022-10-09T14:13:47.243Z,4.47
2022-10-09T14:16:14.600Z,4.35
2022-10-09T14:18:41.590Z,5.55
2022-10-09T14:21:15.233Z,3.97
2022-10-09T14:23:43.173Z,3.80
2022-10-09T14:26:10.156Z,4.18
2022-10-09T14:28:37.411Z,4.63
2022-10-09T14:31:06.451Z,5.38
2022-10-09T14:33:33.701Z,6.10
2022-10-09T14:36:13.255Z,6.37
2022-10-09T14:38:41.442Z,5.20
2022-10-09T14:41:09.709Z,3.58
2022-10-09T14:43:36.695Z,4.75
2022-10-09T14:46:17.019Z,3.60
2022-10-09T14:48:49.920Z,5.30
2022-10-09T14:51:20.023Z,3.65
2022-10-09T14:53:47.493Z,4.82
2022-10-09T14:56:17.980Z,4.68
2022-10-09T14:58:45.314Z,3.30
2022-10-09T15:01:14.491Z,5.27
2022-10-09T15:03:41.519Z,4.63
2022-10-09T15:06:11.287Z,3.03
2022-10-09T15:08:40.522Z,6.63
2022-10-09T15:11:10.344Z,5.03
2022-10-09T15:13:38.597Z,4.17
2022-10-09T15:16:12.580Z,2.88
2022-10-09T15:18:39.954Z,3.08
2022-10-09T15:21:16.015Z,4.60
2022-10-09T15:23:43.394Z,3.97
2022-10-09T15:26:10.917Z,3.87
2022-10-09T15:28:41.535Z,5.90
2022-10-09T15:31:26.921Z,4.53
2022-10-09T15:33:55.719Z,3.28
2022-10-09T15:36:23.334Z,2.72
2022-10-09T15:38:50.413Z,5.10
2022-10-09T15:41:29.263Z,3.83
2022-10-09T15:43:59.067Z,4.72
2022-10-09T15:46:26.704Z,3.58
2022-10-09T15:48:54.133Z,4.53
2022-10-09T15:51:21.886Z,4.73
2022-10-09T15:53:50.634Z,2.90
2022-10-09T15:56:23.822Z,2.33
2022-10-09T15:58:52.208Z,3.08
2022-10-09T16:01:19.259Z,3.95
2022-10-09T16:03:46.894Z,3.40
2022-10-09T16:06:17.334Z,2.97
2022-10-09T16:08:44.680Z,4.20
2022-10-09T16:11:13.706Z,2.88
2022-10-09T16:13:42.593Z,4.00
2022-10-09T16:16:14.194Z,3.93
2022-10-09T16:18:41.090Z,3.10
2022-10-09T16:21:16.844Z,5.70
2022-10-09T16:23:45.050Z,2.65
2022-10-09T16:26:14.769Z,3.05
2022-10-09T16:28:41.663Z,4.10
2022-10-09T16:31:08.522Z,1.98
2022-10-09T16:33:35.574Z,2.58
2022-10-09T16:36:10.599Z,5.70
2022-10-09T16:38:41.611Z,6.55
2022-10-09T16:41:11.041Z,5.13
2022-10-09T16:43:38.952Z,3.60
2022-10-09T16:46:09.760Z,3.90
2022-10-09T16:48:36.572Z,4.55
2022-10-09T16:51:08.144Z,6.18
2022-10-09T16:53:35.090Z,4.57
2022-10-09T16:56:13.712Z,4.60
2022-10-09T16:58:41.816Z,3.92
2022-10-09T17:01:10.422Z,4.50
2022-10-09T17:03:40.686Z,6.93
2022-10-09T17:06:10.083Z,4.10
2022-10-09T17:08:36.976Z,4.30
2022-10-09T17:11:07.605Z,6.00
2022-10-09T17:13:34.535Z,6.43
2022-10-09T17:16:04.043Z,5.10
2022-10-09T17:18:30.926Z,5.43
2022-10-09T17:20:57.808Z,9.35
2022-10-09T17:23:24.634Z,6.93
2022-10-09T17:25:51.561Z,5.93
2022-10-09T17:28:18.346Z,8.80
2022-10-09T17:30:45.423Z,7.07
2022-10-09T17:33:16.249Z,7.93
2022-10-09T17:35:45.674Z,7.38
2022-10-09T17:38:12.376Z,13.05
2022-10-09T17:40:40.152Z,17.33
2022-10-09T17:43:08.323Z,18.97
2022-10-09T17:45:42.732Z,13.90
2022-10-09T17:48:10.243Z,11.68
2022-10-09T17:50:37.165Z,10.63
2022-10-09T17:53:04.195Z,7.82
2022-10-09T17:55:31.631Z,7.90
2022-10-09T17:57:58.525Z,9.65
2022-10-09T18:00:25.376Z,7.97
2022-10-09T18:02:52.204Z,7.00
2022-10-09T18:05:18.945Z,7.55
2022-10-09T18:07:45.688Z,7.23
2022-10-09T18:10:16.014Z,6.22
2022-10-09T18:12:43.078Z,5.18
2022-10-09T18:15:10.997Z,8.15
2022-10-09T18:17:37.791Z,7.80
2022-10-09T18:20:05.444Z,5.70
2022-10-09T18:22:32.645Z,7.05
2022-10-09T18:24:59.423Z,8.60
2022-10-09T18:27:28.993Z,9.27
2022-10-09T18:29:55.803Z,9.73
2022-10-09T18:32:22.495Z,7.20
2022-10-09T18:34:49.296Z,7.00
2022-10-09T18:37:16.290Z,6.53
2022-10-09T18:39:43.250Z,9.98
2022-10-09T18:42:10.111Z,7.15
2022-10-09T18:44:40.417Z,8.40
2022-10-09T18:47:12.166Z,6.53
2022-10-09T18:49:43.959Z,6.00
2022-10-09T18:52:12.708Z,9.73
2022-10-09T18:54:41.682Z,7.70
2022-10-09T18:57:09.157Z,6.83
2022-10-09T18:59:38.306Z,6.57
2022-10-09T19:02:05.408Z,7.20
2022-10-09T19:04:32.392Z,7.10
2022-10-09T19:06:59.345Z,5.32
2022-10-09T19:09:26.795Z,5.87
2022-10-09T19:11:53.917Z,8.35
2022-10-09T19:14:20.783Z,5.78
2022-10-09T19:16:47.612Z,5.60
2022-10-09T19:19:14.586Z,6.05
2022-10-09T19:21:44.026Z,7.30
2022-10-09T19:24:12.541Z,4.63
2022-10-09T19:26:40.390Z,6.63
2022-10-09T19:29:08.016Z,6.22
2022-10-09T19:31:35.618Z,5.57
2022-10-09T19:34:04.832Z,5.90
2022-10-09T19:36:36.699Z,5.38
2022-10-09T19:39:05.655Z,4.85
2022-10-09T19:41:32.526Z,4.40
2022-10-09T19:44:00.095Z,4.63
2022-10-09T19:46:27.540Z,3.73
2022-10-09T19:48:54.289Z,5.60
2022-10-09T19:51:24.557Z,5.22
2022-10-09T19:53:53.577Z,6.13
2022-10-09T19:56:28.395Z,5.97
2022-10-09T19:58:55.830Z,5.47
2022-10-09T20:01:25.281Z,6.68
2022-10-09T20:03:57.711Z,4.95
2022-10-09T20:06:25.170Z,8.82
2022-10-09T20:08:52.237Z,6.53
2022-10-09T20:11:20.714Z,6.57
2022-10-09T20:13:52.120Z,7.28
2022-10-09T20:16:21.718Z,6.75
2022-10-09T20:18:48.459Z,8.95
2022-10-09T20:21:17.967Z,8.48
2022-10-09T20:23:45.306Z,7.40
2022-10-09T20:26:14.899Z,5.38
2022-10-09T20:28:42.703Z,7.55
2022-10-09T20:31:14.817Z,6.30
2022-10-09T20:33:42.989Z,7.45
2022-10-09T20:36:20.208Z,7.37
2022-10-09T20:38:47.132Z,6.57
2022-10-09T20:41:15.898Z,6.72
2022-10-09T20:43:42.734Z,6.43
2022-10-09T20:46:13.490Z,6.28
2022-10-09T20:48:43.997Z,4.73
2022-10-09T20:51:10.910Z,6.20
2022-10-09T20:53:37.769Z,6.50
2022-10-09T20:56:11.532Z,4.82
2022-10-09T20:58:39.273Z,4.35
2022-10-09T21:01:07.639Z,3.90
2022-10-09T21:03:36.123Z,4.80
2022-10-09T21:06:06.185Z,4.28
2022-10-09T21:08:33.995Z,5.70
2022-10-09T21:11:01.023Z,6.47
2022-10-09T21:13:27.807Z,5.33
2022-10-09T21:15:54.637Z,6.25
2022-10-09T21:18:21.393Z,5.15
2022-10-09T21:20:49.043Z,8.02
2022-10-09T21:23:18.815Z,5.45
2022-10-09T21:25:51.379Z,5.10
2022-10-09T21:28:19.884Z,5.78
2022-10-09T21:30:47.193Z,6.68
2022-10-09T21:33:14.672Z,6.78
2022-10-09T21:35:43.505Z,4.95
2022-10-09T21:38:24.151Z,5.80
2022-10-09T21:40:51.074Z,5.47
2022-10-09T21:43:18.285Z,5.45
2022-10-09T21:45:49.493Z,4.88
2022-10-09T21:48:16.898Z,7.10
2022-10-09T21:50:44.513Z,5.87
2022-10-09T21:53:12.074Z,6.40
2022-10-09T21:55:39.676Z,4.78
2022-10-09T21:58:07.497Z,6.28
2022-10-09T22:00:34.994Z,3.90
2022-10-09T22:03:01.850Z,6.57
2022-10-09T22:05:28.702Z,5.63
2022-10-09T22:07:55.591Z,5.55
2022-10-09T22:10:22.788Z,7.05
2022-10-09T22:12:49.925Z,7.07
2022-10-09T22:15:17.116Z,6.50
2022-10-09T22:17:43.811Z,7.45
2022-10-09T22:20:10.612Z,5.18
2022-10-09T22:22:37.364Z,6.30
2022-10-09T22:25:04.618Z,5.25
2022-10-09T22:27:31.413Z,5.20
2022-10-09T22:29:58.171Z,7.43
2022-10-09T22:32:24.978Z,5.30
2022-10-09T22:34:52.280Z,6.50
2022-10-09T22:37:19.146Z,7.05
2022-10-09T22:39:45.951Z,5.40
2022-10-09T22:42:12.697Z,5.78
2022-10-09T22:44:39.619Z,5.50
2022-10-09T22:47:06.428Z,4.82
2022-10-09T22:49:33.269Z,7.47
2022-10-09T22:52:00.083Z,5.07
2022-10-09T22:54:26.844Z,6.10
2022-10-09T22:56:53.634Z,5.00
2022-10-09T22:59:20.386Z,6.03
2022-10-09T23:01:54.756Z,6.35
2022-10-09T23:04:23.158Z,7.07
2022-10-09T23:06:56.110Z,4.88
2022-10-09T23:09:25.526Z,5.25
2022-10-09T23:11:52.569Z,6.53
2022-10-09T23:14:19.458Z,6.55
2022-10-09T23:16:46.463Z,6.40
2022-10-09T23:19:13.513Z,3.67
2022-10-09T23:21:42.251Z,4.22
2022-10-09T23:24:11.594Z,4.30
2022-10-09T23:26:39.624Z,6.40
2022-10-09T23:29:09.179Z,5.30
2022-10-09T23:31:36.844Z,5.85
2022-10-09T23:34:05.575Z,5.85
2022-10-09T23:36:32.985Z,10.60
2022-10-09T23:39:01.966Z,4.47
2022-10-09T23:41:29.373Z,5.30
2022-10-09T23:43:56.231Z,4.85
2022-10-09T23:46:25.376Z,6.22
2022-10-09T23:48:52.881Z,7.10
2022-10-09T23:51:21.576Z,5.57
2022-10-09T23:53:48.517Z,5.30
2022-10-09T23:56:28.376Z,4.13
2022-10-09T23:58:56.444Z,5.43
